createdAt,value
2022-10-23T00:01:33.965Z,19.40
2022-10-23T00:04:04.064Z,19.50
2022-10-23T00:06:33.787Z,19.50
2022-10-23T00:09:02.722Z,19.40
2022-10-23T00:11:31.752Z,19.50
2022-10-23T00:14:02.829Z,19.50
2022-10-23T00:16:31.830Z,19.50
2022-10-23T00:19:00.466Z,19.40
2022-10-23T00:21:29.088Z,19.40
2022-10-23T00:23:57.764Z,19.40
2022-10-23T00:26:26.452Z,19.40
2022-10-23T00:28:55.419Z,19.30
2022-10-23T00:31:24.790Z,19.30
2022-10-23T00:33:53.488Z,19.30
2022-10-23T00:36:23.659Z,19.30
2022-10-23T00:38:52.296Z,19.30
2022-10-23T00:41:22.831Z,19.20
2022-10-23T00:43:55.885Z,19.20
2022-10-23T00:46:24.847Z,19.20
2022-10-23T00:48:53.420Z,19.20
2022-10-23T00:51:22.160Z,19.20
2022-10-23T00:54:01.401Z,19.20
2022-10-23T00:56:23.692Z,19.20
2022-10-23T00:58:52.533Z,19.20
2022-10-23T01:01:23.054Z,19.20
2022-10-23T01:03:52.009Z,19.20
2022-10-23T01:06:22.109Z,19.30
2022-10-23T01:08:52.513Z,19.30
2022-10-23T01:11:26.278Z,19.30
2022-10-23T01:13:56.413Z,19.30
2022-10-23T01:16:26.577Z,19.40
2022-10-23T01:18:57.356Z,19.40
2022-10-23T01:21:36.388Z,19.40
2022-10-23T01:24:06.519Z,19.50
2022-10-23T01:26:53.310Z,19.50
2022-10-23T01:29:24.243Z,19.50
2022-10-23T01:31:54.346Z,19.50
2022-10-23T01:34:30.573Z,19.50
2022-10-23T01:37:01.076Z,19.50
2022-10-23T01:39:31.310Z,19.50
2022-10-23T01:42:01.908Z,19.50
2022-10-23T01:44:40.028Z,19.70
2022-10-23T01:47:10.285Z,19.70
2022-10-23T01:49:42.216Z,19.80
2022-10-23T01:52:12.624Z,19.70
2022-10-23T01:54:44.824Z,19.70
2022-10-23T01:57:14.998Z,19.70
2022-10-23T01:59:45.540Z,19.70
2022-10-23T02:02:15.635Z,19.60
2022-10-23T02:04:50.364Z,19.60
2022-10-23T02:07:18.935Z,19.70
2022-10-23T02:09:47.496Z,19.70
2022-10-23T02:12:21.001Z,19.70
2022-10-23T02:14:53.941Z,19.70
2022-10-23T02:17:24.109Z,19.70
2022-10-23T02:20:11.176Z,19.80
2022-10-23T02:22:41.665Z,19.80
2022-10-23T02:25:57.994Z,19.80
2022-10-23T02:28:30.332Z,19.70
2022-10-23T02:31:03.401Z,19.80
2022-10-23T02:33:33.629Z,19.80
2022-10-23T02:36:03.636Z,19.80
2022-10-23T02:38:35.930Z,19.80
2022-10-23T02:41:25.049Z,19.80
2022-10-23T02:44:09.509Z,19.90
2022-10-23T02:46:45.159Z,19.80
2022-10-23T02:49:41.781Z,19.80
2022-10-23T02:52:44.743Z,19.80
2022-10-23T02:55:32.328Z,19.80
2022-10-23T02:58:04.943Z,19.70
2022-10-23T03:00:37.357Z,19.80
2022-10-23T03:03:22.138Z,19.80
2022-10-23T03:05:52.181Z,19.90
2022-10-23T03:08:21.675Z,19.80
2022-10-23T03:10:51.488Z,19.70
2022-10-23T03:13:22.091Z,19.70
2022-10-23T03:15:51.556Z,19.70
2022-10-23T03:18:20.974Z,19.60
2022-10-23T03:20:51.936Z,19.60
2022-10-23T03:23:23.139Z,19.50
2022-10-23T03:25:54.743Z,19.40
2022-10-23T03:28:38.051Z,19.40
2022-10-23T03:31:09.547Z,19.40
2022-10-23T03:33:40.375Z,19.40
2022-10-23T03:36:11.752Z,19.40
2022-10-23T03:38:41.450Z,19.40
2022-10-23T03:41:12.393Z,19.30
2022-10-23T03:43:41.811Z,19.30
2022-10-23T03:46:13.065Z,19.30
2022-10-23T03:48:42.742Z,19.30
2022-10-23T03:51:12.718Z,19.30
2022-10-23T03:53:42.967Z,19.30
2022-10-23T03:56:12.494Z,19.40
2022-10-23T03:58:41.929Z,19.40
2022-10-23T04:01:11.635Z,19.50
2022-10-23T04:03:41.130Z,19.50
2022-10-23T04:06:10.860Z,19.60
2022-10-23T04:08:40.471Z,19.70
2022-10-23T04:11:11.981Z,19.60
2022-10-23T04:13:46.163Z,19.70
2022-10-23T04:16:17.361Z,19.80
2022-10-23T04:18:47.270Z,19.70
2022-10-23T04:21:17.020Z,19.70
2022-10-23T04:23:46.728Z,19.70
2022-10-23T04:26:20.411Z,19.70
2022-10-23T04:28:49.899Z,19.70
2022-10-23T04:31:19.405Z,19.70
2022-10-23T04:33:48.970Z,19.60
2022-10-23T04:36:20.120Z,19.70
2022-10-23T04:38:49.630Z,19.70
2022-10-23T04:41:19.059Z,19.80
2022-10-23T04:43:48.566Z,19.90
2022-10-23T04:46:18.194Z,20.00
2022-10-23T04:48:49.443Z,20.10
2022-10-23T04:51:20.595Z,20.20
2022-10-23T04:54:00.559Z,20.30
2022-10-23T04:56:48.014Z,20.50
2022-10-23T04:59:19.258Z,20.60
2022-10-23T05:01:49.070Z,20.80
2022-10-23T05:04:19.256Z,20.80
2022-10-23T05:07:06.502Z,20.90
2022-10-23T05:09:40.609Z,20.70
2022-10-23T05:12:21.044Z,20.70
2022-10-23T05:14:50.530Z,20.60
2022-10-23T05:17:31.859Z,20.60
2022-10-23T05:20:04.162Z,20.50
2022-10-23T05:22:36.987Z,20.40
2022-10-23T05:25:08.408Z,20.30
2022-10-23T05:27:37.842Z,20.20
2022-10-23T05:30:09.603Z,20.10
2022-10-23T05:32:41.406Z,20.10
2022-10-23T05:35:14.900Z,20.10
2022-10-23T05:37:48.156Z,20.00
2022-10-23T05:40:19.519Z,20.00
2022-10-23T05:42:50.297Z,20.10
2022-10-23T05:45:21.984Z,20.00
2022-10-23T05:48:11.375Z,20.00
2022-10-23T05:50:59.707Z,20.00
2022-10-23T05:53:30.934Z,20.10
2022-10-23T05:56:19.401Z,20.00
2022-10-23T05:58:50.627Z,20.10
2022-10-23T06:01:23.245Z,20.20
2022-10-23T06:03:56.908Z,20.20
2022-10-23T06:06:28.213Z,20.30
2022-10-23T06:08:57.904Z,20.20
2022-10-23T06:11:27.413Z,20.20
2022-10-23T06:14:00.264Z,20.30
2022-10-23T06:16:29.753Z,20.30
2022-10-23T06:19:00.345Z,20.20
2022-10-23T06:21:29.977Z,20.30
2022-10-23T06:23:59.468Z,20.20
2022-10-23T06:26:40.581Z,20.10
2022-10-23T06:29:11.682Z,20.10
2022-10-23T06:31:42.543Z,20.00
2022-10-23T06:34:13.495Z,20.00
2022-10-23T06:36:43.997Z,20.00
2022-10-23T06:39:15.415Z,20.00
2022-10-23T06:41:46.552Z,20.00
2022-10-23T06:44:17.762Z,20.00
2022-10-23T06:46:49.258Z,20.00
2022-10-23T06:49:36.786Z,20.10
2022-10-23T06:52:14.383Z,20.00
2022-10-23T06:54:39.221Z,20.00
2022-10-23T06:57:13.440Z,20.00
2022-10-23T06:59:47.302Z,20.10
2022-10-23T07:02:17.903Z,20.20
2022-10-23T07:04:47.439Z,20.10
2022-10-23T07:07:19.743Z,20.20
2022-10-23T07:09:50.472Z,20.20
2022-10-23T07:12:24.643Z,20.30
2022-10-23T07:14:55.842Z,20.30
2022-10-23T07:17:25.412Z,20.30
2022-10-23T07:19:54.945Z,20.30
2022-10-23T07:22:25.144Z,20.30
2022-10-23T07:24:59.225Z,20.40
2022-10-23T07:27:30.363Z,20.40
2022-10-23T07:30:01.625Z,20.40
2022-10-23T07:32:32.761Z,20.50
2022-10-23T07:35:20.498Z,20.50
2022-10-23T07:38:01.928Z,20.60
2022-10-23T07:40:33.097Z,20.50
2022-10-23T07:43:02.586Z,20.60
2022-10-23T07:45:32.532Z,20.60
2022-10-23T07:48:03.741Z,20.70
2022-10-23T07:50:34.896Z,20.80
2022-10-23T07:53:04.925Z,20.80
2022-10-23T07:55:36.226Z,20.90
2022-10-23T07:58:07.398Z,21.00
2022-10-23T08:00:45.612Z,21.00
2022-10-23T08:03:16.953Z,21.10
2022-10-23T08:05:46.725Z,21.00
2022-10-23T08:08:16.228Z,21.10
2022-10-23T08:10:49.067Z,21.20
2022-10-23T08:13:21.222Z,21.20
2022-10-23T08:15:56.040Z,21.30
2022-10-23T08:18:27.190Z,21.30
2022-10-23T08:21:03.479Z,21.40
2022-10-23T08:23:33.479Z,21.30
2022-10-23T08:26:05.609Z,21.30
2022-10-23T08:28:35.883Z,21.30
2022-10-23T08:31:11.997Z,21.30
2022-10-23T08:33:42.972Z,21.30
2022-10-23T08:36:24.309Z,21.30
2022-10-23T08:38:55.815Z,21.20
2022-10-23T08:41:29.029Z,21.30
2022-10-23T08:44:03.247Z,21.30
2022-10-23T08:46:37.535Z,21.40
2022-10-23T08:49:23.270Z,21.50
2022-10-23T08:51:58.073Z,21.50
2022-10-23T08:54:33.457Z,21.50
2022-10-23T08:57:06.007Z,21.60
2022-10-23T08:59:41.104Z,21.60
2022-10-23T09:02:24.994Z,21.50
2022-10-23T09:04:57.594Z,21.60
2022-10-23T09:07:35.898Z,21.70
2022-10-23T09:10:40.461Z,21.80
2022-10-23T09:13:41.688Z,21.90
2022-10-23T09:16:16.916Z,21.90
2022-10-23T09:18:49.389Z,22.00
2022-10-23T09:21:18.925Z,22.20
2022-10-23T09:23:48.415Z,22.40
2022-10-23T09:26:19.924Z,22.60
2022-10-23T09:28:56.480Z,22.80
2022-10-23T09:31:25.962Z,23.00
2022-10-23T09:33:58.482Z,23.10
2022-10-23T09:36:29.756Z,23.20
2022-10-23T09:39:01.682Z,23.30
2022-10-23T09:41:39.807Z,23.40
2022-10-23T09:44:12.481Z,23.40
2022-10-23T09:46:45.066Z,23.70
2022-10-23T09:49:20.168Z,23.80
2022-10-23T09:52:02.230Z,24.50
2022-10-23T09:54:34.577Z,25.20
2022-10-23T09:57:07.108Z,25.10
2022-10-23T09:59:36.691Z,25.10
2022-10-23T10:02:09.326Z,25.10
2022-10-23T10:04:57.856Z,25.10
2022-10-23T10:07:33.341Z,25.20
2022-10-23T10:10:01.599Z,25.60
2022-10-23T10:12:59.412Z,26.00
2022-10-23T10:15:37.697Z,26.10
2022-10-23T10:18:31.261Z,26.20
2022-10-23T10:21:12.634Z,26.50
2022-10-23T10:23:50.780Z,26.50
2022-10-23T10:26:31.661Z,26.90
2022-10-23T10:29:31.146Z,26.90
2022-10-23T10:32:06.423Z,27.30
2022-10-23T10:34:39.457Z,27.40
2022-10-23T10:37:17.557Z,26.90
2022-10-23T10:39:55.652Z,26.50
2022-10-23T10:43:03.382Z,26.60
2022-10-23T10:45:36.364Z,26.60
2022-10-23T10:48:23.078Z,26.20
2022-10-23T10:51:12.981Z,25.90
2022-10-23T10:54:04.056Z,25.70
2022-10-23T10:56:34.202Z,25.70
2022-10-23T10:59:04.302Z,25.60
2022-10-23T11:01:37.788Z,25.70
2022-10-23T11:04:14.155Z,25.80
2022-10-23T11:06:44.957Z,26.00
2022-10-23T11:09:23.083Z,26.40
2022-10-23T11:11:51.796Z,26.60
2022-10-23T11:14:21.937Z,26.00
2022-10-23T11:16:52.036Z,26.00
2022-10-23T11:19:24.934Z,26.10
2022-10-23T11:21:55.251Z,26.60
2022-10-23T11:24:31.103Z,27.60
2022-10-23T11:27:07.212Z,27.70
2022-10-23T11:29:46.449Z,28.20
2022-10-23T11:32:22.876Z,28.70
2022-10-23T11:34:55.904Z,28.50
2022-10-23T11:37:26.927Z,29.00
2022-10-23T11:40:03.359Z,28.80
2022-10-23T11:42:42.958Z,28.60
2022-10-23T11:45:31.542Z,28.70
2022-10-23T11:48:01.775Z,28.70
2022-10-23T11:50:32.057Z,29.00
2022-10-23T11:53:13.602Z,28.80
2022-10-23T11:55:34.024Z,28.90
2022-10-23T11:58:06.892Z,28.90
2022-10-23T12:00:37.104Z,28.30
2022-10-23T12:03:06.399Z,27.80
2022-10-23T12:05:37.781Z,27.70
2022-10-23T12:08:07.682Z,27.60
2022-10-23T12:10:38.945Z,27.50
2022-10-23T12:13:09.054Z,27.30
2022-10-23T12:15:37.787Z,27.50
2022-10-23T12:18:11.009Z,27.50
2022-10-23T12:20:53.397Z,27.50
2022-10-23T12:23:23.721Z,27.50
2022-10-23T12:26:02.853Z,27.20
2022-10-23T12:28:33.025Z,27.10
2022-10-23T12:31:21.882Z,27.10
2022-10-23T12:34:01.242Z,26.90
2022-10-23T12:36:37.403Z,26.90
2022-10-23T12:39:07.679Z,26.90
2022-10-23T12:41:37.872Z,26.90
2022-10-23T12:44:07.987Z,26.90
2022-10-23T12:46:38.017Z,26.90
2022-10-23T12:49:17.979Z,26.90
2022-10-23T12:51:48.896Z,26.70
2022-10-23T12:54:18.423Z,26.70
2022-10-23T12:56:47.589Z,26.60
2022-10-23T12:59:20.607Z,26.60
2022-10-23T13:01:52.569Z,26.60
2022-10-23T13:04:29.876Z,26.60
2022-10-23T13:06:59.920Z,26.70
2022-10-23T13:09:30.092Z,26.70
2022-10-23T13:12:01.557Z,26.70
2022-10-23T13:14:32.444Z,26.60
2022-10-23T13:17:01.981Z,26.60
2022-10-23T13:19:30.576Z,26.60
2022-10-23T13:21:59.900Z,26.60
2022-10-23T13:24:29.907Z,26.60
2022-10-23T13:26:59.320Z,26.60
2022-10-23T13:29:32.566Z,26.60
2022-10-23T13:32:11.489Z,26.60
2022-10-23T13:34:40.052Z,26.60
2022-10-23T13:37:25.537Z,26.70
2022-10-23T13:40:04.888Z,26.60
2022-10-23T13:42:33.810Z,26.70
2022-10-23T13:45:02.437Z,26.80
2022-10-23T13:47:31.081Z,26.80
2022-10-23T13:49:59.679Z,26.70
2022-10-23T13:52:28.241Z,26.80
2022-10-23T13:54:57.514Z,26.80
2022-10-23T13:57:26.882Z,27.00
2022-10-23T13:59:55.706Z,27.10
2022-10-23T14:02:25.077Z,27.30
2022-10-23T14:04:55.673Z,27.30
2022-10-23T14:07:24.307Z,27.40
2022-10-23T14:09:52.909Z,27.40
2022-10-23T14:12:21.675Z,27.50
2022-10-23T14:14:53.573Z,27.70
2022-10-23T14:17:22.779Z,27.60
2022-10-23T14:19:51.542Z,27.60
2022-10-23T14:22:20.094Z,27.50
2022-10-23T14:24:48.725Z,27.50
2022-10-23T14:27:18.080Z,27.50
2022-10-23T14:29:47.562Z,27.80
2022-10-23T14:32:17.025Z,27.70
2022-10-23T14:34:49.545Z,27.60
2022-10-23T14:37:19.641Z,27.60
2022-10-23T14:39:50.366Z,27.60
2022-10-23T14:42:20.378Z,27.50
2022-10-23T14:44:50.754Z,27.30
2022-10-23T14:47:20.998Z,27.20
2022-10-23T14:49:54.254Z,27.20
2022-10-23T14:52:24.591Z,27.20
2022-10-23T14:54:54.758Z,27.10
2022-10-23T14:57:24.195Z,27.00
2022-10-23T14:59:53.658Z,26.90
2022-10-23T15:02:23.167Z,26.90
2022-10-23T15:04:52.590Z,26.90
2022-10-23T15:07:22.790Z,26.80
2022-10-23T15:09:52.288Z,26.80
2022-10-23T15:12:21.793Z,26.70
2022-10-23T15:14:51.501Z,26.70
2022-10-23T15:17:20.901Z,26.60
2022-10-23T15:19:50.310Z,26.60
2022-10-23T15:22:19.884Z,26.60
2022-10-23T15:24:49.676Z,26.50
2022-10-23T15:27:20.056Z,26.40
2022-10-23T15:29:49.639Z,26.40
2022-10-23T15:32:19.968Z,26.40
2022-10-23T15:34:49.891Z,26.40
2022-10-23T15:37:19.340Z,26.30
2022-10-23T15:39:48.834Z,26.20
2022-10-23T15:42:19.666Z,26.20
2022-10-23T15:44:49.763Z,26.20
2022-10-23T15:47:19.317Z,26.10
2022-10-23T15:49:48.821Z,26.00
2022-10-23T15:52:18.287Z,25.90
2022-10-23T15:54:47.783Z,25.80
2022-10-23T15:57:17.289Z,25.80
2022-10-23T15:59:48.051Z,25.80
2022-10-23T16:02:17.569Z,25.80
2022-10-23T16:04:47.251Z,25.70
2022-10-23T16:07:16.787Z,25.50
2022-10-23T16:09:46.220Z,25.60
2022-10-23T16:12:15.739Z,25.50
2022-10-23T16:14:45.863Z,25.50
2022-10-23T16:19:45.633Z,25.50
2022-10-23T16:22:16.388Z,25.50
2022-10-23T16:24:45.825Z,25.60
2022-10-23T16:27:15.374Z,25.60
2022-10-23T16:29:44.882Z,25.50
2022-10-23T16:32:14.314Z,25.50
2022-10-23T16:34:43.764Z,25.60
2022-10-23T16:37:13.191Z,25.60
2022-10-23T16:39:50.544Z,25.40
2022-10-23T16:42:39.540Z,25.40
2022-10-23T16:45:27.484Z,25.40
2022-10-23T16:47:57.049Z,25.30
2022-10-23T16:50:26.584Z,25.30
2022-10-23T16:52:56.195Z,25.10
2022-10-23T16:55:26.032Z,25.10
2022-10-23T16:57:56.966Z,24.90
2022-10-23T17:00:28.038Z,24.80
2022-10-23T17:02:57.514Z,24.80
2022-10-23T17:05:26.948Z,24.70
2022-10-23T17:07:56.371Z,24.60
2022-10-23T17:10:25.900Z,24.60
2022-10-23T17:12:55.392Z,24.50
2022-10-23T17:15:24.832Z,24.40
2022-10-23T17:17:57.646Z,24.30
2022-10-23T17:20:27.077Z,24.20
2022-10-23T17:22:56.502Z,24.10
2022-10-23T17:25:26.548Z,24.00
2022-10-23T17:27:56.033Z,24.00
2022-10-23T17:30:25.504Z,23.90
2022-10-23T17:32:58.231Z,23.80
2022-10-23T17:35:26.548Z,23.70
2022-10-23T17:37:55.966Z,23.60
2022-10-23T17:40:27.154Z,23.60
2022-10-23T17:42:56.567Z,23.50
2022-10-23T17:45:26.072Z,23.40
2022-10-23T17:47:55.594Z,23.40
2022-10-23T17:50:25.016Z,23.40
2022-10-23T17:52:54.438Z,23.40
2022-10-23T17:55:23.947Z,23.30
2022-10-23T17:57:53.374Z,23.20
2022-10-23T18:00:23.167Z,23.20
2022-10-23T18:02:52.616Z,23.10
2022-10-23T18:05:22.518Z,23.10
2022-10-23T18:07:55.281Z,23.00
2022-10-23T18:10:23.922Z,22.90
2022-10-23T18:12:53.284Z,22.80
2022-10-23T18:15:23.058Z,22.70
2022-10-23T18:17:52.540Z,22.70
2022-10-23T18:20:22.045Z,22.60
2022-10-23T18:22:51.508Z,22.60
2022-10-23T18:25:21.067Z,22.60
2022-10-23T18:27:50.501Z,22.50
2022-10-23T18:30:20.393Z,22.50
2022-10-23T18:32:49.832Z,22.50
2022-10-23T18:35:19.509Z,22.50
2022-10-23T18:37:48.949Z,22.60
2022-10-23T18:40:18.735Z,22.50
2022-10-23T18:42:49.315Z,22.40
2022-10-23T18:45:18.931Z,22.40
2022-10-23T18:47:48.520Z,22.30
2022-10-23T18:50:18.099Z,22.10
2022-10-23T18:52:47.728Z,21.90
2022-10-23T18:55:17.698Z,21.80
2022-10-23T18:57:47.263Z,21.70
2022-10-23T19:00:17.345Z,21.50
2022-10-23T19:02:52.153Z,21.40
2022-10-23T19:05:18.970Z,21.30
2022-10-23T19:07:50.323Z,21.30
2022-10-23T19:10:21.999Z,21.30
2022-10-23T19:12:51.463Z,21.40
2022-10-23T19:15:20.990Z,21.40
2022-10-23T19:17:53.027Z,21.20
2022-10-23T19:20:24.421Z,21.30
2022-10-23T19:22:56.102Z,21.40
2022-10-23T19:25:29.144Z,21.50
2022-10-23T19:28:00.970Z,21.30
2022-10-23T19:30:31.201Z,21.10
2022-10-23T19:33:01.495Z,21.00
2022-10-23T19:35:31.020Z,21.00
2022-10-23T19:38:00.653Z,21.00
2022-10-23T19:40:30.573Z,21.10
2022-10-23T19:43:01.007Z,21.00
2022-10-23T19:48:01.304Z,21.10
2022-10-23T19:50:31.045Z,21.10
2022-10-23T19:53:00.468Z,21.10
2022-10-23T19:55:30.265Z,21.10
2022-10-23T19:57:59.917Z,21.20
2022-10-23T20:00:29.362Z,21.20
2022-10-23T20:02:58.803Z,21.30
2022-10-23T20:05:28.424Z,21.30
2022-10-23T20:07:57.870Z,21.00
2022-10-23T20:10:27.750Z,20.90
2022-10-23T20:15:28.348Z,20.90
2022-10-23T20:17:57.843Z,20.90
2022-10-23T20:20:27.369Z,21.00
2022-10-23T20:22:57.127Z,20.90
2022-10-23T20:25:28.124Z,21.00
2022-10-23T20:27:57.697Z,21.00
2022-10-23T20:30:27.125Z,20.80
2022-10-23T20:32:57.451Z,20.80
2022-10-23T20:35:26.944Z,20.80
2022-10-23T20:37:56.389Z,20.70
2022-10-23T20:40:25.823Z,20.60
2022-10-23T20:42:55.265Z,20.60
2022-10-23T20:45:24.703Z,20.60
2022-10-23T20:47:54.155Z,20.60
2022-10-23T20:50:24.118Z,20.60
2022-10-23T20:52:53.611Z,20.50
2022-10-23T20:55:23.492Z,20.50
2022-10-23T20:57:53.836Z,20.50
2022-10-23T21:00:23.457Z,20.40
2022-10-23T21:02:53.219Z,20.40
2022-10-23T21:05:23.117Z,20.40
2022-10-23T21:07:52.561Z,20.30
2022-10-23T21:10:21.999Z,20.40
2022-10-23T21:12:52.199Z,20.40
2022-10-23T21:15:21.628Z,20.50
2022-10-23T21:17:52.468Z,20.60
2022-10-23T21:20:21.890Z,20.60
2022-10-23T21:22:54.749Z,20.40
2022-10-23T21:25:24.416Z,20.40
2022-10-23T21:27:53.949Z,20.50
2022-10-23T21:30:23.530Z,20.60
2022-10-23T21:32:52.919Z,20.70
2022-10-23T21:35:25.389Z,20.40
2022-10-23T21:37:53.488Z,20.40
2022-10-23T21:40:22.990Z,20.40
2022-10-23T21:42:52.863Z,20.30
2022-10-23T21:45:22.292Z,20.30
2022-10-23T21:47:51.780Z,20.40
2022-10-23T21:50:21.191Z,20.30
2022-10-23T21:52:54.178Z,20.30
2022-10-23T21:55:29.242Z,20.20
2022-10-23T21:57:58.689Z,20.40
2022-10-23T22:00:28.120Z,20.50
2022-10-23T22:02:57.551Z,20.60
2022-10-23T22:05:27.005Z,20.70
2022-10-23T22:07:56.449Z,20.80
2022-10-23T22:10:25.862Z,20.70
2022-10-23T22:12:55.489Z,20.80
2022-10-23T22:15:24.911Z,20.80
2022-10-23T22:17:54.353Z,20.80
2022-10-23T22:20:24.026Z,20.70
2022-10-23T22:22:53.630Z,20.60
2022-10-23T22:25:23.051Z,20.60
2022-10-23T22:27:52.532Z,20.60
2022-10-23T22:30:21.960Z,20.60
2022-10-23T22:32:51.481Z,20.60
2022-10-23T22:35:20.984Z,20.50
2022-10-23T22:37:50.415Z,20.40
2022-10-23T22:40:43.044Z,20.40
2022-10-23T22:43:10.531Z,20.30
2022-10-23T22:45:40.002Z,20.30
2022-10-23T22:48:09.589Z,20.40
2022-10-23T22:50:39.012Z,20.30
2022-10-23T22:53:08.479Z,20.20
2022-10-23T22:55:42.708Z,20.10
2022-10-23T22:58:12.238Z,20.20
2022-10-23T23:00:43.579Z,20.20
2022-10-23T23:03:13.234Z,20.20
2022-10-23T23:05:48.490Z,20.20
2022-10-23T23:08:17.913Z,20.20
2022-10-23T23:10:55.387Z,20.10
2022-10-23T23:13:25.459Z,20.10
2022-10-23T23:15:55.353Z,20.10
2022-10-23T23:18:25.448Z,20.10
2022-10-23T23:20:55.200Z,20.10
2022-10-23T23:23:24.606Z,20.10
2022-10-23T23:25:54.046Z,20.10
2022-10-23T23:28:23.847Z,19.90
2022-10-23T23:30:56.350Z,19.90
2022-10-23T23:33:25.838Z,20.00
2022-10-23T23:35:55.276Z,20.10
2022-10-23T23:38:24.700Z,20.10
2022-10-23T23:40:55.480Z,19.90
2022-10-23T23:43:24.928Z,19.80
2022-10-23T23:45:54.615Z,19.70
2022-10-23T23:48:24.947Z,19.70
2022-10-23T23:50:54.454Z,19.90
2022-10-23T23:53:23.943Z,20.00
2022-10-23T23:55:53.501Z,19.80
2022-10-23T23:58:23.296Z,19.90
